Time;durP1;ratioP1;P1;durP2;ratioP2;P2;SDS_P1;SDS_P2;PMS_P1;PMS_P2;Temp;Humidity;BMP_temperature;BMP_pressure;BME280_temperature;BME280_humidity;BME280_pressure;Samples;Min_cycle;Max_cycle;Signal;HPM_P1;HPM_P2
2024/01/09 00:01:14;;;;;;;17.87;12.30;;;-4.30;99.90;;;;;;5045146;28;20589;-69
2024/01/09 00:03:40;;;;;;;18.07;11.43;;;-4.40;99.90;;;;;;5053377;28;20209;-69
2024/01/09 00:06:06;;;;;;;21.20;12.80;;;-4.40;99.90;;;;;;5053288;28;20193;-69
2024/01/09 00:08:31;;;;;;;19.67;12.73;;;-4.40;99.90;;;;;;5047997;28;20230;-69
2024/01/09 00:10:59;;;;;;;17.50;12.50;;;-4.40;99.90;;;;;;5036632;28;20210;-69
2024/01/09 00:13:25;;;;;;;16.67;12.30;;;-4.40;99.90;;;;;;5048332;28;20885;-69
2024/01/09 00:15:50;;;;;;;13.70;10.30;;;-4.30;99.90;;;;;;5049121;28;20463;-69
2024/01/09 00:18:16;;;;;;;21.80;11.83;;;-4.40;99.90;;;;;;5051005;28;20265;-69
2024/01/09 00:20:41;;;;;;;21.13;12.03;;;-4.40;99.90;;;;;;5034184;28;20627;-69
2024/01/09 00:23:07;;;;;;;18.70;13.63;;;-4.50;99.90;;;;;;5022346;28;20170;-69
2024/01/09 00:25:32;;;;;;;20.00;12.50;;;-4.50;99.90;;;;;;5051064;28;20201;-68
2024/01/09 00:27:58;;;;;;;20.07;13.50;;;-4.50;99.90;;;;;;5067985;22;20221;-69
2024/01/09 00:30:24;;;;;;;18.97;11.67;;;-4.50;99.90;;;;;;5049749;28;20162;-69
2024/01/09 00:32:50;;;;;;;21.70;11.43;;;-4.50;99.90;;;;;;5034258;28;20174;-69
2024/01/09 00:35:15;;;;;;;13.93;10.63;;;-4.50;99.90;;;;;;5040392;28;20166;-69
2024/01/09 00:37:42;;;;;;;22.83;11.63;;;-4.50;99.90;;;;;;5053340;28;20185;-69
2024/01/09 00:40:08;;;;;;;16.73;11.00;;;-4.50;99.90;;;;;;5050887;28;20169;-69
2024/01/09 00:42:34;;;;;;;17.20;12.20;;;-4.50;99.90;;;;;;5026441;28;20417;-69
2024/01/09 00:45:01;;;;;;;18.53;11.30;;;-4.50;99.90;;;;;;5035855;28;20484;-69
2024/01/09 00:47:27;;;;;;;17.80;11.40;;;-4.50;99.90;;;;;;5032608;28;20251;-69
2024/01/09 00:49:52;;;;;;;20.43;12.57;;;-4.60;99.90;;;;;;5033623;28;20417;-69
2024/01/09 00:52:18;;;;;;;15.93;12.17;;;-4.60;99.90;;;;;;5032406;28;20506;-69
2024/01/09 00:54:43;;;;;;;15.33;10.33;;;-4.50;99.90;;;;;;5040476;28;20526;-69
2024/01/09 00:57:09;;;;;;;13.63;10.40;;;-4.60;99.90;;;;;;5038875;28;20216;-70
2024/01/09 00:59:35;;;;;;;17.70;10.23;;;-4.60;99.90;;;;;;5033016;28;20186;-69
2024/01/09 01:02:00;;;;;;;17.60;10.37;;;-4.60;99.90;;;;;;5032920;28;20918;-69
2024/01/09 01:04:26;;;;;;;15.07;10.23;;;-4.60;99.90;;;;;;5032741;28;20197;-69
2024/01/09 01:06:51;;;;;;;18.10;10.70;;;-4.60;99.90;;;;;;5021293;28;20241;-69
2024/01/09 01:09:17;;;;;;;19.80;12.27;;;-4.60;99.90;;;;;;5027578;28;20190;-69
2024/01/09 01:11:42;;;;;;;17.47;10.33;;;-4.60;99.90;;;;;;5027151;28;20264;-69
2024/01/09 01:14:07;;;;;;;16.63;12.50;;;-4.70;99.90;;;;;;5032506;28;20187;-69
2024/01/09 01:16:33;;;;;;;18.33;11.73;;;-4.70;99.90;;;;;;5031251;28;20208;-69
2024/01/09 01:18:59;;;;;;;12.80;10.30;;;-4.70;99.90;;;;;;5028307;28;20182;-69
2024/01/09 01:21:24;;;;;;;18.53;11.50;;;-4.70;99.90;;;;;;5032854;28;20186;-69
2024/01/09 01:23:49;;;;;;;16.93;10.87;;;-4.70;99.90;;;;;;5039213;28;20190;-69
2024/01/09 01:26:15;;;;;;;17.77;12.27;;;-4.70;99.90;;;;;;5036740;28;20586;-69
2024/01/09 01:28:42;;;;;;;16.37;10.40;;;-4.70;99.90;;;;;;5032586;28;20186;-69
2024/01/09 01:31:07;;;;;;;18.10;11.90;;;-4.80;99.90;;;;;;5021610;28;20612;-69
2024/01/09 01:33:33;;;;;;;19.50;11.60;;;-4.70;99.90;;;;;;5030091;28;20506;-69
2024/01/09 01:35:58;;;;;;;12.87;10.27;;;-4.80;99.90;;;;;;5032158;28;20174;-69
2024/01/09 01:38:25;;;;;;;11.83;9.70;;;-4.80;99.90;;;;;;5032734;28;20194;-69
2024/01/09 01:40:50;;;;;;;20.33;11.93;;;-4.80;99.90;;;;;;5036293;28;20179;-69
2024/01/09 01:43:16;;;;;;;17.27;10.70;;;-4.80;99.90;;;;;;5032923;28;20448;-70
2024/01/09 01:45:41;;;;;;;17.00;9.77;;;-4.80;99.90;;;;;;5031078;28;20214;-69
2024/01/09 01:48:08;;;;;;;16.60;11.20;;;-4.80;99.90;;;;;;5031176;28;20206;-69
2024/01/09 01:50:34;;;;;;;14.83;10.80;;;-4.80;99.90;;;;;;5032466;28;20177;-69
2024/01/09 01:53:01;;;;;;;16.90;10.83;;;-4.80;99.90;;;;;;5031444;28;20428;-69
2024/01/09 01:55:28;;;;;;;17.03;11.17;;;-4.80;99.90;;;;;;5031895;28;20703;-69
2024/01/09 01:57:54;;;;;;;16.87;11.67;;;-4.80;99.90;;;;;;5026755;28;20451;-69
2024/01/09 02:00:21;;;;;;;17.43;12.00;;;-4.80;99.90;;;;;;5027104;28;20437;-69
2024/01/09 02:02:50;;;;;;;16.00;9.50;;;-4.80;99.90;;;;;;5034313;28;20947;-69
2024/01/09 02:05:17;;;;;;;13.77;11.50;;;-4.80;99.90;;;;;;5030815;28;20421;-69
2024/01/09 02:07:45;;;;;;;18.53;9.67;;;-4.80;99.90;;;;;;5027309;28;20464;-69
2024/01/09 02:10:11;;;;;;;14.47;10.00;;;-4.80;99.90;;;;;;5028878;28;21051;-69
2024/01/09 02:12:37;;;;;;;17.83;9.90;;;-4.80;99.90;;;;;;5031032;28;20465;-69
2024/01/09 02:15:06;;;;;;;17.30;10.13;;;-4.80;99.90;;;;;;5025344;28;20265;-69
2024/01/09 02:17:32;;;;;;;13.83;9.97;;;-4.90;99.90;;;;;;5025071;28;20456;-69
2024/01/09 02:20:01;;;;;;;15.00;10.23;;;-4.90;99.90;;;;;;5031290;28;20420;-69
2024/01/09 02:22:27;;;;;;;18.77;11.47;;;-4.90;99.90;;;;;;5025930;28;20679;-69
2024/01/09 02:24:52;;;;;;;20.40;11.23;;;-4.90;99.90;;;;;;5035808;28;20431;-69
2024/01/09 02:27:34;;;;;;;21.10;10.50;;;-4.90;99.90;;;;;;5028204;28;20263;-69
2024/01/09 02:30:00;;;;;;;16.47;11.40;;;-4.90;99.90;;;;;;5030097;28;20174;-69
2024/01/09 02:32:26;;;;;;;17.73;10.30;;;-5.00;99.90;;;;;;5030885;28;20790;-69
2024/01/09 02:34:52;;;;;;;17.40;10.67;;;-5.00;99.90;;;;;;5030459;28;20433;-69
2024/01/09 02:37:18;;;;;;;16.23;10.53;;;-4.90;99.90;;;;;;5020272;28;20209;-69
2024/01/09 02:39:43;;;;;;;22.23;9.67;;;-5.00;99.90;;;;;;5025313;28;20448;-69
2024/01/09 02:42:09;;;;;;;21.30;11.60;;;-5.00;99.90;;;;;;5033193;28;20181;-69
2024/01/09 02:44:34;;;;;;;18.83;11.77;;;-5.00;99.90;;;;;;5029761;28;20187;-69
2024/01/09 02:47:00;;;;;;;17.73;11.80;;;-5.00;99.90;;;;;;5030364;28;20287;-69
2024/01/09 02:49:26;;;;;;;18.97;11.30;;;-5.00;99.90;;;;;;5019661;28;20175;-69
2024/01/09 02:51:52;;;;;;;14.37;9.67;;;-5.00;99.90;;;;;;5027731;28;20189;-69
2024/01/09 02:54:18;;;;;;;15.00;10.53;;;-5.10;99.90;;;;;;5031471;28;20179;-69
2024/01/09 02:56:43;;;;;;;13.17;10.87;;;-5.10;99.90;;;;;;5032702;28;20456;-69
2024/01/09 02:59:09;;;;;;;15.17;11.13;;;-5.10;99.90;;;;;;5014072;28;20233;-69
2024/01/09 03:01:34;;;;;;;19.80;11.37;;;-5.10;99.90;;;;;;5022967;28;20594;-69
2024/01/09 03:04:00;;;;;;;20.80;10.70;;;-5.10;99.90;;;;;;5028476;28;20178;-70
2024/01/09 03:06:25;;;;;;;16.00;10.47;;;-5.10;99.90;;;;;;5030432;28;20206;-69
2024/01/09 03:08:51;;;;;;;17.10;11.00;;;-5.10;99.90;;;;;;5031271;28;20171;-69
2024/01/09 03:11:16;;;;;;;17.40;10.43;;;-5.10;99.90;;;;;;5030635;28;20236;-69
2024/01/09 03:13:42;;;;;;;17.37;10.37;;;-5.10;99.90;;;;;;5021069;28;20525;-69
2024/01/09 03:16:12;;;;;;;23.00;10.67;;;-5.10;99.90;;;;;;5030337;28;20205;-69
2024/01/09 03:18:42;;;;;;;14.67;10.70;;;-5.10;99.90;;;;;;5029443;28;20941;-69
2024/01/09 03:21:09;;;;;;;19.33;10.73;;;-5.10;99.90;;;;;;5031527;28;20429;-69
2024/01/09 03:23:35;;;;;;;14.17;9.80;;;-5.10;99.90;;;;;;5030473;28;20435;-69
2024/01/09 03:26:01;;;;;;;14.30;10.40;;;-5.10;99.90;;;;;;5028096;28;20464;-69
2024/01/09 03:28:26;;;;;;;12.40;8.80;;;-5.20;99.90;;;;;;5031055;28;20589;-69
2024/01/09 03:30:52;;;;;;;18.47;10.00;;;-5.20;99.90;;;;;;5030580;28;20167;-69
2024/01/09 03:33:17;;;;;;;12.90;10.00;;;-5.20;99.90;;;;;;5031787;28;20258;-69
2024/01/09 03:35:43;;;;;;;19.73;13.30;;;-5.20;99.90;;;;;;5023245;28;20231;-69
2024/01/09 03:38:08;;;;;;;13.90;11.37;;;-5.20;99.90;;;;;;5040814;28;20205;-69
2024/01/09 03:40:35;;;;;;;18.53;10.97;;;-5.20;99.90;;;;;;5040399;28;20236;-69
2024/01/09 03:43:02;;;;;;;17.03;10.27;;;-5.20;99.90;;;;;;5039646;28;20549;-69
2024/01/09 03:45:27;;;;;;;17.83;11.83;;;-5.20;99.90;;;;;;5032968;28;20471;-69
2024/01/09 03:47:53;;;;;;;25.03;12.27;;;-5.20;99.90;;;;;;5037748;28;20457;-69
2024/01/09 03:50:19;;;;;;;14.53;9.10;;;-5.20;99.90;;;;;;5041819;28;20207;-69
2024/01/09 03:52:44;;;;;;;12.67;10.23;;;-5.20;99.90;;;;;;5032394;28;20170;-69
2024/01/09 03:55:10;;;;;;;20.90;10.63;;;-5.20;99.90;;;;;;5041753;28;20189;-70
2024/01/09 03:57:35;;;;;;;17.53;10.80;;;-5.20;99.90;;;;;;5039598;28;20676;-69
2024/01/09 04:00:01;;;;;;;18.00;10.27;;;-5.20;99.90;;;;;;5029759;28;20174;-69
2024/01/09 04:02:26;;;;;;;16.73;10.03;;;-5.10;99.90;;;;;;5034124;28;20189;-69
2024/01/09 04:04:52;;;;;;;13.77;9.20;;;-5.10;99.90;;;;;;5032840;28;20189;-69
2024/01/09 04:07:19;;;;;;;17.80;11.10;;;-5.10;99.90;;;;;;5029728;28;20202;-68
2024/01/09 04:09:44;;;;;;;18.30;11.00;;;-5.10;99.90;;;;;;5039083;28;20186;-69
2024/01/09 04:12:10;;;;;;;19.33;11.00;;;-5.10;99.90;;;;;;5034015;28;20436;-68
2024/01/09 04:14:35;;;;;;;16.70;11.37;;;-5.10;99.90;;;;;;5034158;28;20262;-70
2024/01/09 04:17:01;;;;;;;16.07;9.80;;;-5.10;99.90;;;;;;5031542;28;20198;-69
2024/01/09 04:19:26;;;;;;;20.93;11.30;;;-5.10;99.90;;;;;;5037311;28;20260;-69
2024/01/09 04:21:52;;;;;;;14.37;10.00;;;-5.10;99.90;;;;;;5037711;28;20182;-69
2024/01/09 04:24:17;;;;;;;13.27;9.87;;;-5.20;99.90;;;;;;5031411;28;20548;-68
2024/01/09 04:26:43;;;;;;;18.90;10.07;;;-5.20;99.90;;;;;;5038030;28;20649;-69
2024/01/09 04:29:08;;;;;;;15.77;10.03;;;-5.20;99.90;;;;;;5032034;28;20209;-69
2024/01/09 04:31:34;;;;;;;17.93;11.20;;;-5.20;99.90;;;;;;5026628;28;20166;-69
2024/01/09 04:33:59;;;;;;;17.63;10.50;;;-5.20;99.90;;;;;;5025014;28;20174;-69
2024/01/09 04:36:25;;;;;;;22.30;11.47;;;-5.20;99.90;;;;;;5026605;28;20623;-68
2024/01/09 04:38:50;;;;;;;13.43;9.90;;;-5.20;99.90;;;;;;5035151;28;20182;-68
2024/01/09 04:41:17;;;;;;;17.40;9.97;;;-5.20;99.90;;;;;;5021284;28;20244;-69
2024/01/09 04:43:45;;;;;;;20.40;10.87;;;-5.20;99.90;;;;;;5027064;28;20774;-70
2024/01/09 04:46:10;;;;;;;17.73;11.20;;;-5.20;99.90;;;;;;5025588;28;20472;-71
2024/01/09 04:48:36;;;;;;;15.63;9.13;;;-5.20;99.90;;;;;;5032944;28;20922;-68
2024/01/09 04:51:02;;;;;;;16.67;10.77;;;-5.20;99.90;;;;;;5033172;28;20665;-68
2024/01/09 04:53:27;;;;;;;16.27;9.57;;;-5.30;99.90;;;;;;5024417;28;20188;-68
2024/01/09 04:55:53;;;;;;;15.43;9.40;;;-5.20;99.90;;;;;;5033161;28;20639;-70
2024/01/09 04:58:18;;;;;;;16.17;9.97;;;-5.20;99.90;;;;;;5032483;28;20198;-71
2024/01/09 05:00:44;;;;;;;16.73;8.30;;;-5.20;99.90;;;;;;5032038;28;20197;-71
2024/01/09 05:03:09;;;;;;;18.43;12.23;;;-5.20;99.90;;;;;;5032942;28;20228;-70
2024/01/09 05:05:35;;;;;;;16.00;9.87;;;-5.20;99.90;;;;;;5037050;28;20206;-71
2024/01/09 05:08:00;;;;;;;17.30;9.40;;;-5.20;99.90;;;;;;5024217;28;20198;-71
2024/01/09 05:10:26;;;;;;;19.30;10.97;;;-5.30;99.90;;;;;;5034898;28;20289;-70
2024/01/09 05:12:52;;;;;;;12.50;8.47;;;-5.30;99.90;;;;;;5026545;28;20179;-71
2024/01/09 05:15:17;;;;;;;17.40;9.50;;;-5.30;99.90;;;;;;5028186;28;20452;-70
2024/01/09 05:17:43;;;;;;;14.67;9.87;;;-5.30;99.90;;;;;;5036330;28;20211;-70
2024/01/09 05:20:09;;;;;;;15.07;8.77;;;-5.30;99.90;;;;;;5032740;28;20178;-71
2024/01/09 05:22:35;;;;;;;13.37;8.17;;;-5.30;99.90;;;;;;5031357;28;20182;-71
2024/01/09 05:25:03;;;;;;;18.17;9.40;;;-5.30;99.90;;;;;;5036714;28;20464;-71
2024/01/09 05:27:28;;;;;;;16.40;10.40;;;-5.40;99.90;;;;;;5026576;28;20556;-71
2024/01/09 05:29:54;;;;;;;17.57;9.63;;;-5.30;99.90;;;;;;5023518;28;20516;-70
2024/01/09 05:32:19;;;;;;;19.17;9.80;;;-5.40;99.90;;;;;;5038949;28;20308;-71
2024/01/09 05:34:45;;;;;;;17.07;10.90;;;-5.30;99.90;;;;;;5023228;28;20222;-70
2024/01/09 05:37:10;;;;;;;17.20;9.87;;;-5.40;99.90;;;;;;5030957;28;20202;-70
2024/01/09 05:39:36;;;;;;;14.70;8.93;;;-5.40;99.90;;;;;;5024411;28;20549;-71
2024/01/09 05:42:03;;;;;;;11.70;9.20;;;-5.40;99.90;;;;;;5024268;28;20187;-70
2024/01/09 05:44:28;;;;;;;18.37;10.07;;;-5.40;99.90;;;;;;5030312;28;20301;-70
2024/01/09 05:46:54;;;;;;;16.47;10.37;;;-5.40;99.90;;;;;;5031064;28;21027;-70
2024/01/09 05:49:19;;;;;;;17.40;11.03;;;-5.40;99.90;;;;;;5025264;28;20255;-71
2024/01/09 05:51:45;;;;;;;15.40;10.23;;;-5.40;99.90;;;;;;5031055;28;20174;-70
2024/01/09 05:54:11;;;;;;;19.10;9.40;;;-5.40;99.90;;;;;;5033070;28;20232;-70
2024/01/09 05:56:37;;;;;;;16.87;11.13;;;-5.40;99.90;;;;;;5031724;28;20221;-71
2024/01/09 05:59:03;;;;;;;15.20;9.80;;;-5.40;99.90;;;;;;5032438;28;20854;-71
2024/01/09 06:01:28;;;;;;;17.13;9.37;;;-5.40;99.90;;;;;;5032026;28;20466;-71
2024/01/09 06:03:54;;;;;;;15.60;9.23;;;-5.40;99.90;;;;;;5026475;28;20971;-70
2024/01/09 06:06:19;;;;;;;27.13;10.67;;;-5.40;99.90;;;;;;5022639;28;20662;-71
2024/01/09 06:08:45;;;;;;;15.00;10.27;;;-5.50;99.90;;;;;;5031681;28;20170;-70
2024/01/09 06:11:11;;;;;;;16.20;9.87;;;-5.50;99.90;;;;;;5023700;28;20240;-71
2024/01/09 06:13:36;;;;;;;15.47;8.20;;;-5.50;99.90;;;;;;5021704;28;20430;-70
2024/01/09 06:16:02;;;;;;;16.23;8.37;;;-5.50;99.90;;;;;;5026811;28;20714;-71
2024/01/09 06:18:28;;;;;;;16.37;9.67;;;-5.50;99.90;;;;;;5031391;28;20650;-71
2024/01/09 06:20:53;;;;;;;17.40;10.50;;;-5.50;99.90;;;;;;5023080;28;20190;-70
2024/01/09 06:23:19;;;;;;;16.67;9.80;;;-5.50;99.90;;;;;;5031733;28;20185;-71
2024/01/09 06:25:44;;;;;;;14.93;8.87;;;-5.50;99.90;;;;;;5031669;28;20289;-71
2024/01/09 06:28:10;;;;;;;20.47;9.47;;;-5.50;99.90;;;;;;5033472;28;20291;-71
2024/01/09 06:30:35;;;;;;;16.57;10.07;;;-5.50;99.90;;;;;;5031186;28;20247;-70
2024/01/09 06:33:01;;;;;;;16.43;9.83;;;-5.40;99.90;;;;;;5021959;28;20178;-71
2024/01/09 06:35:27;;;;;;;13.17;10.70;;;-5.50;99.90;;;;;;5031649;28;20178;-71
2024/01/09 06:40:54;;;;;;;15.53;10.10;;;-5.50;99.90;;;;;;5609765;22;20277;-70
2024/01/09 06:43:19;;;;;;;17.93;11.60;;;-5.40;99.90;;;;;;5079303;28;20790;-70
2024/01/09 06:45:45;;;;;;;17.53;11.30;;;-5.50;99.90;;;;;;5080424;28;20516;-70
2024/01/09 06:51:39;;;;;;;15.67;10.00;;;-5.50;99.90;;;;;;4721295;22;20672;-71
2024/01/09 06:54:05;;;;;;;18.43;10.23;;;-5.60;99.90;;;;;;5066727;28;20537;-70
2024/01/09 07:01:41;;;;;;;17.03;10.17;;;-5.50;99.90;;;;;;4137703;26;20481;-70
2024/01/09 07:04:07;;;;;;;14.43;10.67;;;-5.50;99.90;;;;;;5070398;28;20446;-70
2024/01/09 07:09:08;;;;;;;20.43;10.40;;;-5.50;99.90;;;;;;5581841;22;20731;-70
2024/01/09 07:11:33;;;;;;;16.87;9.57;;;-5.50;99.90;;;;;;5037170;28;20425;-70
2024/01/09 07:14:00;;;;;;;16.53;10.27;;;-5.50;99.90;;;;;;5042722;28;20428;-71
2024/01/09 07:19:00;;;;;;;21.33;11.30;;;-5.50;99.90;;;;;;5539341;22;20490;-69
2024/01/09 07:21:26;;;;;;;14.50;9.87;;;-5.50;99.90;;;;;;5073121;28;20790;-69
2024/01/09 07:23:51;;;;;;;18.63;12.23;;;-5.50;99.90;;;;;;5075399;28;20187;-69
2024/01/09 07:28:52;;;;;;;16.83;9.30;;;-5.40;99.90;;;;;;4945024;26;20213;-70
2024/01/09 07:31:18;;;;;;;20.70;11.40;;;-5.40;99.90;;;;;;5031581;28;20447;-71
2024/01/09 07:33:43;;;;;;;17.57;9.77;;;-5.30;99.90;;;;;;5034987;28;20549;-71
2024/01/09 07:38:46;;;;;;;19.20;10.50;;;-5.30;99.90;;;;;;5090454;22;20710;-70
2024/01/09 07:41:12;;;;;;;15.30;11.23;;;-5.30;99.90;;;;;;5037784;28;20499;-70
2024/01/09 07:43:37;;;;;;;17.70;10.70;;;-5.20;99.90;;;;;;5039848;28;20859;-70
2024/01/09 07:46:03;;;;;;;15.57;9.00;;;-5.20;99.90;;;;;;5043217;28;20475;-70
2024/01/09 07:48:28;;;;;;;18.67;10.17;;;-5.10;99.90;;;;;;5037802;28;20202;-70
2024/01/09 07:50:56;;;;;;;18.40;9.97;;;-5.10;99.90;;;;;;5035249;28;20178;-69
2024/01/09 07:53:21;;;;;;;20.43;11.57;;;-5.00;99.90;;;;;;5037629;28;20169;-71
2024/01/09 07:55:47;;;;;;;15.33;10.07;;;-4.90;99.90;;;;;;5038531;28;20440;-71
2024/01/09 07:58:12;;;;;;;16.33;10.40;;;-4.80;99.90;;;;;;5036164;28;20247;-70
2024/01/09 08:00:38;;;;;;;12.27;9.53;;;-4.60;99.90;;;;;;5042035;28;20190;-70
2024/01/09 08:03:05;;;;;;;19.77;10.07;;;-4.50;99.90;;;;;;5045768;28;20196;-71
2024/01/09 08:05:31;;;;;;;16.63;8.87;;;-4.50;99.90;;;;;;5053818;28;20182;-71
2024/01/09 08:18:08;;;;;;;16.33;11.80;;;-3.70;99.90;;;;;;5129994;22;20481;-71
2024/01/09 08:20:34;;;;;;;16.47;10.20;;;-3.40;99.90;;;;;;5078564;28;20430;-71
2024/01/09 08:22:59;;;;;;;18.93;10.30;;;-3.40;99.90;;;;;;5091001;28;20582;-71
2024/01/09 08:25:25;;;;;;;18.60;11.53;;;-3.30;99.90;;;;;;5086708;28;20196;-71
2024/01/09 08:27:50;;;;;;;15.77;11.30;;;-3.10;99.90;;;;;;5077076;28;20184;-71
2024/01/09 08:30:16;;;;;;;20.37;12.67;;;-3.10;99.90;;;;;;5081155;22;20227;-69
2024/01/09 08:32:42;;;;;;;14.20;10.70;;;-3.00;99.90;;;;;;5072706;28;20176;-70
2024/01/09 08:35:08;;;;;;;13.20;9.60;;;-2.80;99.90;;;;;;5080979;28;20438;-70
2024/01/09 08:37:33;;;;;;;19.30;10.43;;;-2.70;99.90;;;;;;5086302;28;20197;-71
2024/01/09 08:39:59;;;;;;;19.00;11.87;;;-2.60;99.90;;;;;;5081475;28;20188;-70
2024/01/09 08:42:24;;;;;;;18.40;11.13;;;-2.50;99.90;;;;;;5085471;28;20181;-71
2024/01/09 08:44:50;;;;;;;18.37;11.70;;;-2.50;99.90;;;;;;5073539;28;20212;-71
2024/01/09 08:47:16;;;;;;;16.23;11.43;;;-2.40;99.90;;;;;;5073213;28;20205;-70
2024/01/09 08:49:43;;;;;;;25.80;12.07;;;-2.10;99.90;;;;;;5071610;28;20723;-70
2024/01/09 08:52:11;;;;;;;17.83;10.87;;;-1.80;99.90;;;;;;5083631;28;20804;-71
2024/01/09 08:54:37;;;;;;;15.87;11.57;;;-1.60;99.90;;;;;;5077913;28;20437;-71
2024/01/09 08:57:02;;;;;;;22.20;11.93;;;-1.10;99.90;;;;;;5082519;28;20434;-71
2024/01/09 08:59:28;;;;;;;16.67;10.60;;;-0.60;99.90;;;;;;5085003;28;20176;-71
2024/01/09 09:01:53;;;;;;;17.97;11.37;;;-0.40;99.90;;;;;;5087148;28;20680;-69
2024/01/09 09:04:19;;;;;;;17.03;11.80;;;-0.30;99.90;;;;;;5084951;28;20204;-70
2024/01/09 09:06:44;;;;;;;14.87;12.07;;;-0.40;99.90;;;;;;5093026;28;20208;-70
2024/01/09 09:09:10;;;;;;;18.73;11.53;;;-0.20;99.90;;;;;;5083807;28;20184;-71
2024/01/09 09:11:36;;;;;;;16.97;12.57;;;-0.40;99.90;;;;;;5082372;28;20832;-70
2024/01/09 09:14:01;;;;;;;18.93;12.03;;;0.00;99.90;;;;;;5084838;28;20548;-70
2024/01/09 09:16:29;;;;;;;17.33;11.83;;;0.40;99.90;;;;;;5092787;28;20236;-70
2024/01/09 09:18:55;;;;;;;22.10;13.37;;;1.20;99.90;;;;;;5080349;28;20173;-69
2024/01/09 09:21:20;;;;;;;22.60;13.00;;;1.60;97.30;;;;;;5080135;28;20538;-70
2024/01/09 09:23:47;;;;;;;20.10;12.50;;;1.40;96.90;;;;;;5082282;28;20430;-71
2024/01/09 09:26:12;;;;;;;16.23;11.60;;;1.40;96.90;;;;;;5080736;28;20571;-71
2024/01/09 09:28:40;;;;;;;17.13;12.63;;;2.00;95.10;;;;;;5071944;28;20423;-70
2024/01/09 09:31:05;;;;;;;19.20;12.40;;;3.00;91.50;;;;;;5072864;28;20211;-70
2024/01/09 09:33:33;;;;;;;19.83;13.07;;;3.40;89.60;;;;;;5083749;28;20525;-68
2024/01/09 09:36:06;;;;;;;16.60;11.77;;;4.30;81.20;;;;;;5080182;28;20611;-68
2024/01/09 09:38:33;;;;;;;17.80;13.70;;;5.70;76.20;;;;;;5083333;28;20434;-68
2024/01/09 09:40:58;;;;;;;17.30;12.77;;;6.50;67.50;;;;;;5076969;28;20459;-67
2024/01/09 09:43:25;;;;;;;17.77;12.63;;;7.30;60.00;;;;;;5082244;28;20429;-69
2024/01/09 09:45:54;;;;;;;15.87;13.77;;;7.60;56.90;;;;;;5079166;28;20196;-68
2024/01/09 09:48:23;;;;;;;17.30;14.23;;;8.20;55.70;;;;;;5075685;28;20426;-68
2024/01/09 09:50:54;;;;;;;19.07;13.50;;;8.20;53.20;;;;;;5076672;28;20455;-68
2024/01/09 09:53:22;;;;;;;15.77;13.30;;;8.60;50.40;;;;;;5078700;28;20429;-68
2024/01/09 09:55:48;;;;;;;21.20;15.00;;;8.30;49.70;;;;;;5080205;28;20434;-68
2024/01/09 09:58:14;;;;;;;15.10;13.50;;;8.40;49.10;;;;;;5071746;28;20435;-68
2024/01/09 10:00:39;;;;;;;16.63;14.90;;;8.40;48.20;;;;;;5076295;28;20207;-69
2024/01/09 10:03:10;;;;;;;17.73;13.83;;;8.90;47.90;;;;;;5079142;28;20447;-69
2024/01/09 10:05:40;;;;;;;21.57;14.93;;;9.20;46.70;;;;;;5079282;28;20184;-69
2024/01/09 10:08:10;;;;;;;16.33;14.83;;;9.90;46.00;;;;;;5075376;28;20481;-71
2024/01/09 10:10:36;;;;;;;17.47;15.00;;;11.00;44.60;;;;;;5074636;28;20452;-68
2024/01/09 10:13:03;;;;;;;19.67;16.00;;;11.40;40.90;;;;;;5081892;28;20502;-69
2024/01/09 10:15:28;;;;;;;17.10;14.90;;;11.70;39.60;;;;;;5084853;28;20464;-69
2024/01/09 10:17:54;;;;;;;17.40;15.53;;;12.80;37.60;;;;;;5085077;28;20442;-70
2024/01/09 10:20:20;;;;;;;20.87;17.23;;;12.00;35.90;;;;;;5051518;28;20193;-69
2024/01/09 10:22:45;;;;;;;17.23;15.20;;;11.90;35.40;;;;;;5051823;28;20170;-68
2024/01/09 10:25:12;;;;;;;17.67;15.60;;;11.80;36.00;;;;;;5075847;28;20177;-69
2024/01/09 10:27:40;;;;;;;22.20;17.20;;;12.10;35.50;;;;;;5081946;28;20581;-68
2024/01/09 10:30:08;;;;;;;20.87;15.37;;;12.50;34.80;;;;;;5089783;28;20442;-68
2024/01/09 10:32:35;;;;;;;18.97;15.70;;;10.70;34.10;;;;;;5092048;28;20414;-69
2024/01/09 10:35:03;;;;;;;20.97;15.80;;;10.00;35.90;;;;;;5070284;28;20427;-68
2024/01/09 10:37:30;;;;;;;16.83;15.13;;;10.80;36.20;;;;;;5084237;28;20789;-69
2024/01/09 10:39:56;;;;;;;19.60;15.80;;;11.80;35.90;;;;;;5079791;28;20838;-69
2024/01/09 10:42:21;;;;;;;17.33;14.80;;;12.80;33.50;;;;;;5074030;28;20489;-68
2024/01/09 10:44:47;;;;;;;17.80;15.57;;;12.30;32.50;;;;;;5085388;28;20177;-69
2024/01/09 10:47:14;;;;;;;23.00;16.63;;;12.40;32.90;;;;;;5075439;28;20283;-67
2024/01/09 10:49:41;;;;;;;21.97;17.53;;;13.30;32.60;;;;;;5075336;28;20176;-67
2024/01/09 10:52:17;;;;;;;19.03;16.17;;;12.70;32.70;;;;;;5075765;28;20665;-68
2024/01/09 10:54:44;;;;;;;16.77;15.07;;;13.40;32.60;;;;;;5075962;28;20512;-68
2024/01/09 10:57:12;;;;;;;17.47;14.77;;;13.20;31.60;;;;;;5075110;28;20454;-69
2024/01/09 10:59:43;;;;;;;17.53;14.90;;;13.50;30.80;;;;;;5075552;28;20423;-66
2024/01/09 11:02:15;;;;;;;21.93;17.60;;;13.10;30.80;;;;;;5079359;28;20772;-69
2024/01/09 11:04:44;;;;;;;17.87;15.97;;;13.50;30.50;;;;;;5078290;28;20457;-68
2024/01/09 11:07:14;;;;;;;17.30;15.30;;;13.40;30.00;;;;;;5086492;28;20548;-69
2024/01/09 11:09:42;;;;;;;16.80;15.07;;;13.30;30.00;;;;;;5083620;28;20850;-66
2024/01/09 11:12:13;;;;;;;19.67;15.40;;;12.70;30.70;;;;;;5088532;28;20790;-67
2024/01/09 11:14:41;;;;;;;21.97;19.63;;;13.10;31.40;;;;;;5074968;28;20427;-68
2024/01/09 11:17:10;;;;;;;19.40;17.27;;;13.00;30.90;;;;;;5074631;28;20864;-68
2024/01/09 11:19:37;;;;;;;23.17;20.67;;;13.70;31.20;;;;;;5082012;28;20804;-67
2024/01/09 11:22:19;;;;;;;20.80;15.67;;;13.70;30.60;;;;;;5089298;28;20445;-68
2024/01/09 11:24:47;;;;;;;20.80;18.53;;;12.90;30.10;;;;;;5075592;28;20445;-68
2024/01/09 11:27:13;;;;;;;19.03;17.00;;;14.00;30.90;;;;;;5093664;28;20445;-67
2024/01/09 11:29:50;;;;;;;18.40;15.90;;;15.00;33.10;;;;;;5080845;28;20434;-70
2024/01/09 11:32:16;;;;;;;17.97;16.07;;;15.70;28.30;;;;;;5084249;28;20850;-67
2024/01/09 11:35:06;;;;;;;19.70;16.43;;;14.50;28.00;;;;;;5080166;28;20922;-68
2024/01/09 11:37:32;;;;;;;19.03;15.70;;;14.80;28.00;;;;;;5073369;28;20419;-68
2024/01/09 11:39:58;;;;;;;18.03;16.00;;;15.90;27.40;;;;;;5075322;28;20477;-68
2024/01/09 11:42:24;;;;;;;17.67;15.97;;;16.20;26.50;;;;;;5085871;28;20937;-68
2024/01/09 11:44:49;;;;;;;17.73;16.03;;;17.20;25.90;;;;;;5083995;28;20827;-68
2024/01/09 11:47:15;;;;;;;18.17;14.80;;;17.60;25.20;;;;;;5065801;28;20459;-68
2024/01/09 11:49:40;;;;;;;17.20;15.40;;;18.00;25.00;;;;;;5060844;28;20174;-70
2024/01/09 11:52:06;;;;;;;17.80;16.07;;;17.10;24.20;;;;;;5059384;28;20654;-68
2024/01/09 11:54:32;;;;;;;17.43;15.73;;;16.80;25.10;;;;;;5076306;28;20204;-69
2024/01/09 11:56:57;;;;;;;19.53;15.50;;;16.40;24.80;;;;;;5060570;28;20247;-69
2024/01/09 11:59:23;;;;;;;15.93;14.33;;;17.80;24.60;;;;;;5059993;28;20174;-67
2024/01/09 12:01:49;;;;;;;16.00;14.10;;;19.00;23.60;;;;;;5061403;28;20201;-67
2024/01/09 12:04:14;;;;;;;19.80;17.80;;;18.00;22.60;;;;;;5061263;28;20427;-68
2024/01/09 12:06:41;;;;;;;15.43;13.87;;;17.80;23.10;;;;;;5066057;28;20567;-67
2024/01/09 12:09:09;;;;;;;15.67;14.13;;;16.80;22.90;;;;;;5069976;28;20540;-68
2024/01/09 12:11:36;;;;;;;16.47;14.83;;;16.10;23.30;;;;;;5070251;28;20962;-71
2024/01/09 12:14:02;;;;;;;15.93;14.33;;;15.50;24.60;;;;;;5072640;28;20432;-68
2024/01/09 12:16:29;;;;;;;15.83;14.10;;;15.70;24.20;;;;;;5059625;28;20517;-68
2024/01/09 12:18:56;;;;;;;17.17;14.70;;;17.00;23.50;;;;;;5070596;28;20431;-68
2024/01/09 12:21:29;;;;;;;17.00;14.43;;;17.20;23.10;;;;;;5065929;28;20438;-67
2024/01/09 12:23:57;;;;;;;15.27;13.67;;;17.10;23.00;;;;;;5063905;28;20806;-68
2024/01/09 12:26:23;;;;;;;14.20;12.80;;;17.70;22.70;;;;;;5063941;28;20416;-71
2024/01/09 12:28:50;;;;;;;16.33;14.70;;;17.40;22.00;;;;;;5070977;28;20919;-67
2024/01/09 12:31:17;;;;;;;16.93;13.80;;;17.20;22.50;;;;;;5061503;28;20487;-68
2024/01/09 12:33:44;;;;;;;15.80;14.27;;;16.70;22.30;;;;;;5061901;28;20442;-68
2024/01/09 12:36:09;;;;;;;14.70;13.30;;;17.50;22.20;;;;;;5062616;28;20989;-68
2024/01/09 12:38:35;;;;;;;16.53;14.83;;;17.90;21.70;;;;;;5066030;28;20431;-67
2024/01/09 12:41:02;;;;;;;15.33;13.13;;;18.60;21.70;;;;;;5066126;28;20220;-67
2024/01/09 12:43:28;;;;;;;14.10;12.80;;;17.70;21.20;;;;;;5070078;28;20196;-69
2024/01/09 12:45:56;;;;;;;14.67;13.30;;;17.70;21.70;;;;;;5071696;28;20458;-70
2024/01/09 12:48:22;;;;;;;15.17;13.00;;;17.70;21.60;;;;;;5065078;28;20442;-67
2024/01/09 12:51:06;;;;;;;15.30;13.90;;;17.20;21.90;;;;;;5057352;28;20546;-69
2024/01/09 12:53:35;;;;;;;15.40;13.80;;;17.20;21.70;;;;;;5069621;28;20444;-68
2024/01/09 12:56:18;;;;;;;13.80;12.40;;;16.90;22.00;;;;;;5063534;28;20526;-67
2024/01/09 12:58:45;;;;;;;14.03;12.73;;;16.50;21.80;;;;;;5068274;28;20434;-68